Time;durP1;ratioP1;P1;durP2;ratioP2;P2;SDS_P1;SDS_P2;PMS_P1;PMS_P2;Temp;Humidity;BMP_temperature;BMP_pressure;BME280_temperature;BME280_humidity;BME280_pressure;Samples;Min_cycle;Max_cycle;Signal;HPM_P1;HPM_P2
2022/05/01 00:01:49;;;;;;;1.10;1.10;;;11.60;82.80;;;;;;5015045;28;20218;-72
2022/05/01 00:04:15;;;;;;;1.05;1.05;;;11.60;83.00;;;;;;5015810;28;20230;-72
2022/05/01 00:06:40;;;;;;;1.10;1.10;;;11.50;82.90;;;;;;5011485;28;20184;-71
2022/05/01 00:09:06;;;;;;;1.20;1.20;;;11.50;82.60;;;;;;5016625;28;20837;-72
2022/05/01 00:11:32;;;;;;;1.15;1.08;;;11.50;83.10;;;;;;5014442;28;20231;-72
2022/05/01 00:13:58;;;;;;;2.80;0.95;;;11.50;83.20;;;;;;5014770;28;20181;-72
2022/05/01 00:16:24;;;;;;;1.17;1.17;;;11.50;83.10;;;;;;5018480;28;20196;-71
2022/05/01 00:18:50;;;;;;;1.10;1.10;;;11.50;83.20;;;;;;5012256;28;20267;-71
2022/05/01 00:21:16;;;;;;;1.13;1.13;;;11.50;83.10;;;;;;5012069;28;20208;-71
2022/05/01 00:23:41;;;;;;;2.45;1.45;;;11.50;83.30;;;;;;5011794;28;20699;-71
2022/05/01 00:26:08;;;;;;;1.13;1.13;;;11.40;83.30;;;;;;5013592;28;20177;-72
2022/05/01 00:28:36;;;;;;;2.45;1.45;;;11.40;83.20;;;;;;5016759;28;20861;-73
2022/05/01 00:31:06;;;;;;;1.90;1.42;;;11.40;83.20;;;;;;5007386;28;21117;-72
2022/05/01 00:36:26;;;;;;;1.23;1.23;;;11.40;83.20;;;;;;5012626;28;20180;-71
2022/05/01 00:38:53;;;;;;;0.88;0.88;;;11.30;83.40;;;;;;5016316;28;20296;-72
2022/05/01 00:41:21;;;;;;;0.90;0.90;;;11.30;83.50;;;;;;5012060;28;20216;-72
2022/05/01 00:44:08;;;;;;;1.17;1.17;;;11.30;83.60;;;;;;5010422;28;20267;-72
2022/05/01 00:46:38;;;;;;;1.77;1.45;;;11.30;83.40;;;;;;5010521;28;20536;-72
2022/05/01 00:49:07;;;;;;;1.05;1.05;;;11.20;83.90;;;;;;5010173;28;20267;-72
2022/05/01 00:51:38;;;;;;;1.52;1.13;;;11.20;84.20;;;;;;5011296;28;20209;-72
2022/05/01 00:54:07;;;;;;;1.45;1.35;;;11.20;84.00;;;;;;5016697;28;20180;-72
2022/05/01 00:56:38;;;;;;;1.30;1.30;;;11.10;84.30;;;;;;5012637;28;20300;-71
2022/05/01 00:59:04;;;;;;;1.77;1.67;;;11.10;84.70;;;;;;5006120;28;20181;-71
2022/05/01 01:01:31;;;;;;;1.33;1.33;;;11.10;85.10;;;;;;5006892;28;20216;-72
2022/05/01 01:03:57;;;;;;;2.22;2.13;;;11.10;85.20;;;;;;5009881;28;20208;-72
2022/05/01 01:06:23;;;;;;;2.60;1.77;;;11.00;84.90;;;;;;5010838;28;20342;-72
2022/05/01 01:08:49;;;;;;;1.83;1.73;;;11.00;85.20;;;;;;5009877;28;20180;-72
2022/05/01 01:11:14;;;;;;;2.25;2.08;;;11.00;85.40;;;;;;5011220;28;20185;-72
2022/05/01 01:13:41;;;;;;;2.03;1.92;;;11.00;85.40;;;;;;5008377;28;20185;-72
2022/05/01 01:16:10;;;;;;;3.28;2.15;;;10.90;85.70;;;;;;5016628;28;20647;-72
2022/05/01 01:18:39;;;;;;;1.60;1.55;;;10.90;85.90;;;;;;5009400;28;20181;-73
2022/05/01 01:21:11;;;;;;;2.92;2.10;;;10.90;86.20;;;;;;5005644;28;20232;-72
2022/05/01 01:23:41;;;;;;;2.58;2.33;;;10.80;86.60;;;;;;5012272;28;20204;-72
2022/05/01 01:26:09;;;;;;;2.70;2.42;;;10.80;86.60;;;;;;5009154;28;20181;-72
2022/05/01 01:28:40;;;;;;;3.17;1.77;;;10.70;87.00;;;;;;5002066;28;20193;-72
2022/05/01 01:33:57;;;;;;;2.28;2.15;;;10.70;87.30;;;;;;5009712;28;20188;-71
2022/05/01 01:36:26;;;;;;;1.83;1.73;;;10.70;86.80;;;;;;5003126;28;20192;-72
2022/05/01 01:38:51;;;;;;;2.20;2.10;;;10.60;87.50;;;;;;5008005;28;20275;-71
2022/05/01 01:41:39;;;;;;;2.15;2.05;;;10.60;87.60;;;;;;5010405;28;20208;-72
2022/05/01 01:44:08;;;;;;;2.38;2.22;;;10.50;87.50;;;;;;5013249;28;20195;-70
2022/05/01 01:46:37;;;;;;;2.33;2.13;;;10.50;88.10;;;;;;5036655;28;20185;-70
2022/05/01 01:49:08;;;;;;;2.22;1.98;;;10.50;87.80;;;;;;5003756;28;21042;-70
2022/05/01 01:51:34;;;;;;;1.85;1.73;;;10.50;87.90;;;;;;5008838;28;20672;-70
2022/05/01 01:53:59;;;;;;;1.85;1.75;;;10.50;88.50;;;;;;5010225;28;20191;-70
2022/05/01 01:56:25;;;;;;;2.72;2.53;;;10.40;88.30;;;;;;5007928;28;20272;-70
2022/05/01 01:58:50;;;;;;;2.22;2.10;;;10.40;89.00;;;;;;5008941;28;20188;-71
2022/05/01 02:01:18;;;;;;;2.40;2.25;;;10.40;88.70;;;;;;5005797;28;20212;-71
2022/05/01 02:03:43;;;;;;;2.05;1.95;;;10.40;88.80;;;;;;5008258;28;20191;-70
2022/05/01 02:06:10;;;;;;;2.00;1.90;;;10.40;88.90;;;;;;5001454;28;20574;-70
2022/05/01 02:08:38;;;;;;;2.20;2.10;;;10.40;88.80;;;;;;5008388;28;20246;-70
2022/05/01 02:11:04;;;;;;;2.38;2.25;;;10.30;89.20;;;;;;5010846;28;20192;-70
2022/05/01 02:13:32;;;;;;;2.63;2.42;;;10.30;89.60;;;;;;5010147;28;20176;-71
2022/05/01 02:15:58;;;;;;;2.58;2.47;;;10.30;89.50;;;;;;5003450;28;20193;-70
2022/05/01 02:18:25;;;;;;;2.10;2.00;;;10.30;89.20;;;;;;5011220;28;20246;-70
2022/05/01 02:23:37;;;;;;;2.25;2.15;;;10.30;89.70;;;;;;5005984;28;20495;-70
2022/05/01 02:26:02;;;;;;;2.10;2.00;;;10.30;90.10;;;;;;5009458;28;20215;-70
2022/05/01 02:28:28;;;;;;;2.35;2.20;;;10.30;90.00;;;;;;5006774;28;20656;-70
2022/05/01 02:30:55;;;;;;;3.95;2.80;;;10.30;90.00;;;;;;5002874;28;20208;-72
2022/05/01 02:33:21;;;;;;;2.40;2.25;;;10.30;89.90;;;;;;5012904;28;20191;-72
2022/05/01 02:35:47;;;;;;;3.00;2.80;;;10.20;89.80;;;;;;5009351;28;20600;-70
2022/05/01 02:38:15;;;;;;;2.50;2.25;;;10.20;90.10;;;;;;5011023;28;20176;-70
2022/05/01 02:40:42;;;;;;;2.90;2.70;;;10.20;89.90;;;;;;5005764;28;20184;-69
2022/05/01 02:43:08;;;;;;;3.20;2.97;;;10.20;90.40;;;;;;5007990;28;20184;-72
2022/05/01 02:45:34;;;;;;;2.97;2.78;;;10.20;90.40;;;;;;5011533;28;20679;-69
2022/05/01 02:47:59;;;;;;;2.17;2.08;;;10.20;90.50;;;;;;5009217;28;20259;-70
2022/05/01 02:50:25;;;;;;;2.47;2.38;;;10.20;90.20;;;;;;5008266;28;20184;-71
2022/05/01 02:52:51;;;;;;;2.58;2.38;;;10.20;90.20;;;;;;5040166;28;20228;-71
2022/05/01 02:55:18;;;;;;;2.50;2.30;;;10.20;90.50;;;;;;5011256;28;20189;-72
2022/05/01 02:57:43;;;;;;;2.38;2.28;;;10.10;90.10;;;;;;5007899;28;20185;-71
2022/05/01 03:00:16;;;;;;;3.23;2.90;;;10.10;89.80;;;;;;5011940;28;20789;-71
2022/05/01 03:02:44;;;;;;;2.92;2.72;;;10.10;90.50;;;;;;5006457;28;20185;-70
2022/05/01 03:05:09;;;;;;;2.85;2.65;;;10.00;91.00;;;;;;5008579;28;20168;-71
2022/05/01 03:07:35;;;;;;;2.90;2.67;;;9.90;91.20;;;;;;5007697;28;20634;-70
2022/05/01 03:10:01;;;;;;;2.58;2.47;;;10.00;90.90;;;;;;5007805;28;20831;-71
2022/05/01 03:12:27;;;;;;;2.92;2.70;;;9.90;90.60;;;;;;5007917;28;20223;-70
2022/05/01 03:14:52;;;;;;;2.80;2.70;;;9.90;90.20;;;;;;5012403;28;20619;-70
2022/05/01 03:17:18;;;;;;;2.80;2.58;;;9.90;90.40;;;;;;5008667;28;20203;-70
2022/05/01 03:22:28;;;;;;;2.23;2.13;;;9.90;90.30;;;;;;5006236;28;20219;-70
2022/05/01 03:24:53;;;;;;;2.83;2.63;;;9.90;90.10;;;;;;5008639;28;20275;-72
2022/05/01 03:27:19;;;;;;;3.55;3.20;;;9.90;89.70;;;;;;5009924;28;20185;-70
2022/05/01 03:30:15;;;;;;;2.85;2.65;;;9.80;90.20;;;;;;5007437;28;20195;-70
2022/05/01 03:32:33;;;;;;;3.03;2.83;;;9.80;90.10;;;;;;5004614;28;20216;-70
2022/05/01 03:34:59;;;;;;;3.72;3.42;;;9.80;90.30;;;;;;5004364;28;20185;-71
2022/05/01 03:37:24;;;;;;;2.80;2.63;;;9.80;90.10;;;;;;5010957;28;20238;-71
2022/05/01 03:39:50;;;;;;;3.13;2.90;;;9.80;89.80;;;;;;5003149;28;20183;-70
2022/05/01 03:42:16;;;;;;;3.17;2.90;;;9.80;90.80;;;;;;5007767;28;20181;-71
2022/05/01 03:44:42;;;;;;;2.70;2.55;;;9.80;90.30;;;;;;5009254;28;20177;-71
2022/05/01 03:47:07;;;;;;;3.50;3.20;;;9.80;89.90;;;;;;5009626;28;20657;-71
2022/05/01 03:49:33;;;;;;;3.43;3.13;;;9.90;90.90;;;;;;5010182;28;20888;-71
2022/05/01 03:51:59;;;;;;;3.95;3.65;;;9.90;91.10;;;;;;5007539;28;20773;-71
2022/05/01 03:54:24;;;;;;;3.27;3.07;;;9.90;90.70;;;;;;5006458;28;20698;-71
2022/05/01 03:56:50;;;;;;;3.17;2.97;;;9.90;90.70;;;;;;5009150;28;20268;-71
2022/05/01 03:59:16;;;;;;;3.45;3.25;;;9.90;90.80;;;;;;5008226;28;20670;-71
2022/05/01 04:01:42;;;;;;;3.45;3.13;;;9.90;90.90;;;;;;5004379;28;20255;-71
2022/05/01 04:04:08;;;;;;;2.90;2.72;;;9.90;90.80;;;;;;5006194;28;20355;-70
2022/05/01 04:06:34;;;;;;;3.35;3.05;;;9.90;91.70;;;;;;5008982;28;20181;-71
2022/05/01 04:09:00;;;;;;;2.63;2.50;;;9.90;91.50;;;;;;5009541;28;20184;-71
2022/05/01 04:11:27;;;;;;;4.15;2.83;;;10.00;91.40;;;;;;5008692;28;20219;-71
2022/05/01 04:13:53;;;;;;;7.25;3.13;;;10.00;91.80;;;;;;5012555;28;20181;-71
2022/05/01 04:16:18;;;;;;;2.67;2.47;;;10.00;91.40;;;;;;5012157;28;20235;-71
2022/05/01 04:18:44;;;;;;;3.35;3.15;;;10.00;91.40;;;;;;5013658;28;20491;-71
2022/05/01 04:21:12;;;;;;;4.13;3.70;;;10.10;91.30;;;;;;5013977;28;20896;-71
2022/05/01 04:23:38;;;;;;;3.40;3.10;;;10.10;91.20;;;;;;5025582;28;20188;-70
2022/05/01 04:26:04;;;;;;;3.20;2.97;;;10.20;91.10;;;;;;5011551;28;20243;-71
2022/05/01 04:28:30;;;;;;;3.00;2.80;;;10.20;91.30;;;;;;5009552;28;20681;-71
2022/05/01 04:30:55;;;;;;;2.97;2.80;;;10.20;91.30;;;;;;5005885;28;20205;-71
2022/05/01 04:33:21;;;;;;;3.88;3.67;;;10.20;91.00;;;;;;5009033;28;20195;-72
2022/05/01 04:35:50;;;;;;;3.30;3.03;;;10.30;91.10;;;;;;5010243;28;20184;-71
2022/05/01 04:38:23;;;;;;;2.55;2.45;;;10.30;91.10;;;;;;5042710;28;20188;-71
2022/05/01 04:40:53;;;;;;;3.28;2.95;;;10.40;91.10;;;;;;5004024;28;20216;-71
2022/05/01 04:43:24;;;;;;;3.47;3.17;;;10.40;90.90;;;;;;5011066;28;20180;-71
2022/05/01 04:45:54;;;;;;;4.03;3.22;;;10.50;91.20;;;;;;5039816;28;20181;-71
2022/05/01 04:48:21;;;;;;;4.05;3.28;;;10.60;90.70;;;;;;5007466;28;20224;-71
2022/05/01 04:50:48;;;;;;;4.22;3.60;;;10.60;90.90;;;;;;5011133;28;20694;-71
2022/05/01 04:53:15;;;;;;;2.90;2.80;;;10.70;90.90;;;;;;5044392;28;20176;-72
2022/05/01 04:55:43;;;;;;;3.42;3.22;;;10.80;90.90;;;;;;5007844;28;20191;-71
2022/05/01 04:58:10;;;;;;;7.53;4.00;;;10.90;90.40;;;;;;5011580;28;20188;-71
2022/05/01 05:00:36;;;;;;;4.32;3.95;;;10.90;90.20;;;;;;5009739;28;20259;-70
2022/05/01 05:03:03;;;;;;;8.90;3.33;;;11.00;90.20;;;;;;5011485;28;20188;-71
2022/05/01 05:05:34;;;;;;;3.45;3.15;;;11.00;90.00;;;;;;5009541;28;20318;-71
2022/05/01 05:09:53;;;;;;;3.20;3.00;;;11.20;89.80;;;;;;5011420;28;20209;-71
2022/05/01 05:10:47;;;;;;;2.97;2.53;;;11.20;89.80;;;;;;5011705;28;20552;-71
2022/05/01 05:13:28;;;;;;;2.60;2.40;;;11.30;89.60;;;;;;5015547;28;20184;-71
2022/05/01 05:15:54;;;;;;;3.00;2.80;;;11.40;89.10;;;;;;5041311;28;20180;-71
2022/05/01 05:18:20;;;;;;;3.20;3.00;;;11.40;89.30;;;;;;5010525;28;20185;-71
2022/05/01 05:20:45;;;;;;;3.25;3.05;;;11.50;89.00;;;;;;5011879;28;20192;-71
2022/05/01 05:23:11;;;;;;;4.68;3.70;;;11.60;88.90;;;;;;5009175;28;20181;-71
2022/05/01 05:25:37;;;;;;;2.78;2.60;;;11.60;88.80;;;;;;5016456;28;20181;-71
2022/05/01 05:28:06;;;;;;;3.22;2.97;;;11.70;88.70;;;;;;5008815;28;20541;-71
2022/05/01 05:30:32;;;;;;;2.97;2.85;;;11.70;88.70;;;;;;5012054;28;20189;-71
2022/05/01 05:32:58;;;;;;;3.28;3.08;;;11.80;88.50;;;;;;5005706;28;20777;-71
2022/05/01 05:35:24;;;;;;;2.90;2.70;;;11.80;88.40;;;;;;5011177;28;20215;-71
2022/05/01 05:37:49;;;;;;;2.92;2.70;;;11.90;88.40;;;;;;5006745;28;20180;-71
2022/05/01 05:40:15;;;;;;;3.25;2.97;;;12.00;88.50;;;;;;5008992;28;20192;-71
2022/05/01 05:42:41;;;;;;;2.88;2.67;;;12.00;88.50;;;;;;5012130;28;20185;-71
2022/05/01 05:45:07;;;;;;;3.65;3.35;;;12.10;88.20;;;;;;5006781;28;20188;-71
2022/05/01 05:47:32;;;;;;;3.47;3.28;;;12.10;88.00;;;;;;5008489;28;20187;-71
2022/05/01 05:49:58;;;;;;;3.28;3.08;;;12.20;88.00;;;;;;5010044;28;20214;-71
2022/05/01 05:52:24;;;;;;;3.70;3.30;;;12.30;88.00;;;;;;5007950;28;20216;-71
2022/05/01 05:54:49;;;;;;;9.60;3.38;;;12.40;87.90;;;;;;5013937;28;20636;-71
2022/05/01 05:57:15;;;;;;;2.53;2.50;;;12.40;87.80;;;;;;5011048;28;20176;-71
2022/05/01 05:59:41;;;;;;;3.63;3.15;;;12.50;87.60;;;;;;5009661;28;20279;-70
2022/05/01 06:02:07;;;;;;;3.13;2.90;;;12.60;87.40;;;;;;5008824;28;20483;-71
2022/05/01 06:04:33;;;;;;;3.20;3.00;;;12.70;87.50;;;;;;5009832;28;20213;-72
2022/05/01 06:06:58;;;;;;;3.47;3.28;;;12.80;87.10;;;;;;4995528;28;20960;-72
2022/05/01 06:09:24;;;;;;;4.07;3.75;;;12.90;86.80;;;;;;5007628;28;20180;-71
2022/05/01 06:11:50;;;;;;;4.38;3.75;;;12.90;86.80;;;;;;5010945;28;20288;-72
2022/05/01 06:14:15;;;;;;;2.80;2.70;;;12.90;86.80;;;;;;5004485;28;20565;-73
2022/05/01 06:16:41;;;;;;;8.10;3.40;;;13.00;87.10;;;;;;5002393;28;20968;-73
2022/05/01 06:19:07;;;;;;;2.78;2.67;;;13.10;86.80;;;;;;5005454;28;20220;-73
2022/05/01 06:21:33;;;;;;;3.38;3.17;;;13.30;86.20;;;;;;5010127;28;20186;-71
2022/05/01 06:23:59;;;;;;;3.03;2.92;;;13.40;85.90;;;;;;5008698;28;20635;-72
2022/05/01 06:26:24;;;;;;;3.92;3.30;;;13.40;85.30;;;;;;5007307;28;20185;-72
2022/05/01 06:28:51;;;;;;;3.40;3.03;;;13.50;85.20;;;;;;5009153;28;20891;-71
2022/05/01 06:31:17;;;;;;;3.38;3.05;;;13.60;84.90;;;;;;5006034;28;20200;-75
2022/05/01 06:33:45;;;;;;;3.42;3.00;;;13.70;84.50;;;;;;5036006;28;20193;-75
2022/05/01 06:36:13;;;;;;;3.15;2.95;;;13.70;84.00;;;;;;5006874;28;20181;-77
2022/05/01 06:38:39;;;;;;;3.20;3.00;;;13.70;83.90;;;;;;5012989;28;20188;-77
2022/05/01 06:41:05;;;;;;;3.83;3.17;;;13.80;84.20;;;;;;5008251;28;20195;-77
2022/05/01 06:43:33;;;;;;;3.38;3.17;;;13.80;84.00;;;;;;5012353;28;20196;-77
2022/05/01 06:45:59;;;;;;;3.42;3.20;;;13.90;83.60;;;;;;5012549;28;20191;-77
2022/05/01 06:48:24;;;;;;;3.85;3.40;;;14.00;83.40;;;;;;5007445;28;20188;-77
2022/05/01 06:50:50;;;;;;;3.40;3.10;;;14.00;83.80;;;;;;5006981;28;20738;-75
2022/05/01 06:53:16;;;;;;;3.75;3.45;;;14.00;82.70;;;;;;5002510;28;20212;-75
2022/05/01 06:55:42;;;;;;;6.35;2.58;;;13.90;82.20;;;;;;4997408;28;20181;-76
2022/05/01 06:58:08;;;;;;;2.88;2.65;;;13.90;83.30;;;;;;5009234;28;20259;-76
2022/05/01 07:00:34;;;;;;;4.15;2.72;;;14.00;83.40;;;;;;5007800;28;20251;-75
2022/05/01 07:03:00;;;;;;;3.05;2.85;;;14.10;82.80;;;;;;5009988;28;20574;-75
2022/05/01 07:05:26;;;;;;;3.05;2.88;;;14.20;82.80;;;;;;5011626;28;20184;-75
2022/05/01 07:07:54;;;;;;;2.97;2.88;;;14.30;82.10;;;;;;5003665;28;20223;-74
2022/05/01 07:10:20;;;;;;;3.20;3.00;;;14.30;81.90;;;;;;5003069;28;20633;-74
2022/05/01 07:12:46;;;;;;;3.25;2.92;;;14.40;82.30;;;;;;5002401;28;20209;-75
2022/05/01 07:15:12;;;;;;;3.60;3.40;;;14.60;82.00;;;;;;5000502;28;20187;-75
2022/05/01 07:17:38;;;;;;;2.90;2.80;;;14.60;81.70;;;;;;5002030;28;20188;-76
2022/05/01 07:20:04;;;;;;;3.65;3.30;;;14.70;81.60;;;;;;5003198;28;20181;-76
2022/05/01 07:22:30;;;;;;;2.70;2.60;;;14.90;81.20;;;;;;5006793;28;20181;-76
2022/05/01 07:24:56;;;;;;;2.95;2.75;;;14.90;79.10;;;;;;5006911;28;20176;-76
2022/05/01 07:27:23;;;;;;;3.05;2.88;;;15.00;79.40;;;;;;5005986;28;20189;-76
2022/05/01 07:29:48;;;;;;;2.78;2.67;;;15.10;78.90;;;;;;5007243;28;20245;-80
2022/05/01 07:32:14;;;;;;;3.42;3.28;;;15.10;78.40;;;;;;5011159;28;20207;-77
2022/05/01 07:34:41;;;;;;;3.20;3.00;;;15.10;79.20;;;;;;5005714;28;20696;-77
2022/05/01 07:37:07;;;;;;;3.70;2.97;;;15.10;78.90;;;;;;5007759;28;20916;-78
2022/05/01 07:39:33;;;;;;;2.63;2.53;;;15.20;79.10;;;;;;5012865;28;20255;-77
2022/05/01 07:41:58;;;;;;;2.65;2.55;;;15.30;77.80;;;;;;5005421;28;20877;-78
2022/05/01 07:44:24;;;;;;;2.42;2.33;;;15.60;78.50;;;;;;5022908;28;20220;-76
2022/05/01 07:46:51;;;;;;;3.30;3.10;;;15.60;78.20;;;;;;5008264;28;20181;-77
2022/05/01 07:49:18;;;;;;;2.63;2.42;;;15.60;75.70;;;;;;5005102;28;20177;-76
2022/05/01 07:51:44;;;;;;;2.45;2.35;;;15.60;75.70;;;;;;5005661;28;20290;-76
2022/05/01 07:54:10;;;;;;;3.20;3.00;;;15.80;76.40;;;;;;5011977;28;20180;-76
2022/05/01 07:56:38;;;;;;;2.63;2.53;;;15.80;75.80;;;;;;5010157;28;20226;-76
2022/05/01 07:59:05;;;;;;;2.83;2.63;;;16.00;74.70;;;;;;4998741;28;20584;-76
2022/05/01 08:01:31;;;;;;;2.72;2.53;;;16.00;74.80;;;;;;5005970;28;20726;-76
2022/05/01 08:06:42;;;;;;;3.00;2.90;;;15.80;73.90;;;;;;5007632;28;20190;-75
2022/05/01 08:09:08;;;;;;;2.75;2.65;;;15.90;74.80;;;;;;5001085;28;20189;-77
2022/05/01 08:11:33;;;;;;;2.97;2.78;;;16.00;75.00;;;;;;5014242;28;20212;-76
2022/05/01 08:13:59;;;;;;;2.78;2.67;;;16.30;74.70;;;;;;5010705;28;20180;-76
2022/05/01 08:16:25;;;;;;;2.63;2.53;;;16.40;74.70;;;;;;5003942;28;20197;-76
2022/05/01 08:21:36;;;;;;;1.95;1.95;;;16.50;74.20;;;;;;5010888;28;20271;-76
2022/05/01 08:24:03;;;;;;;2.30;2.20;;;16.80;73.20;;;;;;5016176;28;20180;-76
2022/05/01 08:26:31;;;;;;;2.70;2.60;;;16.80;72.00;;;;;;5012304;28;20215;-76
2022/05/01 08:28:57;;;;;;;2.70;2.60;;;17.00;70.40;;;;;;5010747;28;20180;-76
2022/05/01 08:31:23;;;;;;;2.47;2.35;;;17.10;72.50;;;;;;5005161;28;20220;-76
2022/05/01 08:33:49;;;;;;;2.33;2.22;;;17.30;72.00;;;;;;5009000;28;20204;-76
2022/05/01 08:36:16;;;;;;;2.50;2.47;;;17.40;70.40;;;;;;5009996;28;20193;-76
2022/05/01 08:38:43;;;;;;;2.95;2.80;;;17.50;71.10;;;;;;5042080;28;20181;-76
2022/05/01 08:41:09;;;;;;;4.32;2.50;;;17.60;68.40;;;;;;5044411;28;20189;-76
2022/05/01 08:43:36;;;;;;;2.78;2.67;;;17.70;68.50;;;;;;5010869;28;20625;-76
2022/05/01 08:46:10;;;;;;;2.97;2.15;;;17.70;69.30;;;;;;5012534;28;20572;-76
2022/05/01 08:49:08;;;;;;;2.15;2.15;;;17.80;67.10;;;;;;5007050;28;20216;-76
2022/05/01 08:51:42;;;;;;;2.20;2.10;;;17.80;66.20;;;;;;5005215;28;20217;-76
2022/05/01 08:54:14;;;;;;;1.75;1.75;;;17.60;65.10;;;;;;5038943;28;20250;-77
2022/05/01 09:06:46;;;;;;;1.42;1.42;;;17.70;65.60;;;;;;5015655;28;20180;-78
2022/05/01 09:09:17;;;;;;;1.65;1.60;;;17.90;66.30;;;;;;5013862;28;20617;-78
2022/05/01 09:14:29;;;;;;;1.52;1.52;;;18.50;64.90;;;;;;5013479;28;20667;-71
2022/05/01 09:17:15;;;;;;;1.25;1.25;;;18.90;63.80;;;;;;5007335;28;20800;-72
2022/05/01 09:19:45;;;;;;;1.40;1.40;;;19.20;62.20;;;;;;5044219;28;20398;-72
2022/05/01 09:22:12;;;;;;;1.77;1.67;;;19.40;62.10;;;;;;5038854;28;20181;-72
2022/05/01 09:24:40;;;;;;;1.13;1.13;;;19.60;60.80;;;;;;5009933;28;20184;-73
2022/05/01 09:27:32;;;;;;;1.85;1.15;;;19.70;61.80;;;;;;5012060;28;20651;-72
2022/05/01 09:30:21;;;;;;;1.50;1.33;;;20.00;61.80;;;;;;5013819;28;20188;-72
2022/05/01 09:32:48;;;;;;;1.15;1.15;;;20.40;59.20;;;;;;5017125;28;20200;-72
2022/05/01 09:35:25;;;;;;;1.27;1.27;;;20.70;58.40;;;;;;5014827;28;20237;-72
2022/05/01 09:38:09;;;;;;;1.35;1.35;;;20.80;57.80;;;;;;5009424;28;20176;-72
2022/05/01 09:40:35;;;;;;;1.40;1.40;;;20.80;59.00;;;;;;5010089;28;20252;-72
2022/05/01 09:43:01;;;;;;;1.42;1.42;;;20.80;59.10;;;;;;5010144;28;20267;-72
2022/05/01 09:45:32;;;;;;;1.10;1.10;;;20.90;58.00;;;;;;5010419;28;20180;-72
2022/05/01 09:47:58;;;;;;;1.30;1.30;;;21.00;55.60;;;;;;5038141;28;20191;-77
2022/05/01 09:50:41;;;;;;;1.05;0.93;;;21.20;58.10;;;;;;5014497;28;20180;-77
2022/05/01 09:53:08;;;;;;;1.75;0.90;;;21.50;53.80;;;;;;5010509;28;20638;-77
2022/05/01 09:55:34;;;;;;;1.20;1.20;;;21.50;54.80;;;;;;5010652;28;20176;-78
2022/05/01 09:58:14;;;;;;;1.08;1.08;;;21.70;56.70;;;;;;5039875;28;20181;-77
2022/05/01 10:00:46;;;;;;;0.93;0.93;;;21.90;54.70;;;;;;5005920;28;20465;-75
2022/05/01 10:03:28;;;;;;;1.10;1.10;;;22.20;56.70;;;;;;5027609;28;20185;-77
2022/05/01 10:05:57;;;;;;;1.00;0.82;;;22.90;55.40;;;;;;5011584;28;20318;-76
2022/05/01 10:08:24;;;;;;;0.70;0.70;;;23.70;54.50;;;;;;5012881;28;20207;-75
2022/05/01 10:10:57;;;;;;;1.00;1.00;;;24.30;53.20;;;;;;5026877;28;20180;-78
2022/05/01 10:13:27;;;;;;;0.93;0.93;;;25.00;52.00;;;;;;5007387;28;20288;-76
2022/05/01 10:15:54;;;;;;;0.77;0.77;;;25.60;49.50;;;;;;5007613;28;20239;-76
2022/05/01 10:18:22;;;;;;;1.13;1.13;;;25.70;49.30;;;;;;5008411;28;20507;-75
2022/05/01 10:20:48;;;;;;;1.38;1.00;;;25.60;48.70;;;;;;5005968;28;20181;-75
2022/05/01 10:23:16;;;;;;;1.48;1.35;;;25.80;48.30;;;;;;5010454;28;20235;-76
2022/05/01 10:25:52;;;;;;;1.30;1.20;;;26.00;50.40;;;;;;5009004;28;20192;-75
2022/05/01 10:28:33;;;;;;;1.05;1.05;;;26.50;48.40;;;;;;5003760;28;20298;-75
2022/05/01 10:34:23;;;;;;;1.85;0.82;;;27.40;47.80;;;;;;5009687;28;20267;-76
2022/05/01 10:37:39;;;;;;;0.75;0.75;;;27.80;47.30;;;;;;5012679;28;20176;-75
2022/05/01 10:40:06;;;;;;;2.00;1.15;;;28.20;46.40;;;;;;4995336;28;20204;-76
2022/05/01 10:42:38;;;;;;;1.48;1.48;;;28.50;45.40;;;;;;4996363;28;20197;-75
2022/05/01 10:45:25;;;;;;;1.60;1.50;;;28.40;45.00;;;;;;4995972;28;20181;-75
2022/05/01 10:47:53;;;;;;;7.18;1.55;;;28.10;44.50;;;;;;4996159;28;20188;-76
2022/05/01 10:50:26;;;;;;;0.98;0.98;;;27.80;45.90;;;;;;4996560;28;20200;-76
2022/05/01 10:53:05;;;;;;;0.90;0.90;;;27.80;47.00;;;;;;4995807;28;20217;-76
2022/05/01 10:55:53;;;;;;;1.08;0.95;;;28.00;47.90;;;;;;4994741;28;20192;-76
2022/05/01 10:58:26;;;;;;;0.70;0.70;;;28.30;47.10;;;;;;4995024;28;20216;-76
2022/05/01 11:00:54;;;;;;;0.80;0.80;;;28.80;47.40;;;;;;4993811;28;20853;-75
2022/05/01 11:03:31;;;;;;;1.02;1.02;;;29.40;46.30;;;;;;4995160;28;20185;-75
2022/05/01 11:06:04;;;;;;;1.00;1.00;;;29.90;43.90;;;;;;4976830;28;20767;-76
2022/05/01 11:08:38;;;;;;;1.08;1.08;;;29.70;43.80;;;;;;4978464;28;20216;-76
2022/05/01 11:11:11;;;;;;;1.05;0.80;;;29.90;46.10;;;;;;4978076;28;20169;-76
2022/05/01 11:13:41;;;;;;;1.38;1.10;;;30.40;46.40;;;;;;4998637;28;20262;-76
2022/05/01 11:16:08;;;;;;;1.00;1.00;;;30.90;44.40;;;;;;5007444;28;20180;-75
2022/05/01 11:18:35;;;;;;;2.10;1.00;;;31.20;44.20;;;;;;5006663;28;20176;-76
2022/05/01 11:21:19;;;;;;;0.95;0.93;;;31.30;44.00;;;;;;5005772;28;20209;-76
2022/05/01 11:23:46;;;;;;;0.80;0.80;;;31.30;44.40;;;;;;5005851;28;20181;-77
2022/05/01 11:26:14;;;;;;;1.30;1.10;;;31.50;44.80;;;;;;5015402;28;20184;-76
2022/05/01 11:28:52;;;;;;;1.10;1.10;;;32.00;45.90;;;;;;5008733;28;20176;-76
2022/05/01 11:31:36;;;;;;;1.45;1.35;;;32.50;43.00;;;;;;5041792;28;20220;-76
2022/05/01 11:34:17;;;;;;;1.13;0.95;;;32.90;43.20;;;;;;5008364;28;20175;-76
2022/05/01 11:36:57;;;;;;;0.77;0.77;;;33.20;42.30;;;;;;5011136;28;20570;-76
2022/05/01 11:39:47;;;;;;;1.00;1.00;;;33.60;42.90;;;;;;5007540;28;20276;-76
2022/05/01 11:42:40;;;;;;;2.35;1.13;;;33.70;41.10;;;;;;4943812;28;20182;-76
2022/05/01 11:45:10;;;;;;;1.02;1.02;;;33.70;41.30;;;;;;4942794;28;20198;-76
2022/05/01 11:47:36;;;;;;;1.10;1.10;;;33.70;41.10;;;;;;4947031;28;20265;-76
2022/05/01 11:50:03;;;;;;;1.20;1.00;;;33.60;40.50;;;;;;4941046;28;20222;-76
2022/05/01 11:52:30;;;;;;;2.40;0.80;;;33.10;41.40;;;;;;4947484;28;20202;-76
2022/05/01 11:54:58;;;;;;;1.10;1.10;;;32.00;42.50;;;;;;4948413;28;20175;-75
2022/05/01 12:03:01;;;;;;;0.90;0.90;;;29.50;45.00;;;;;;4952924;28;20337;-75
2022/05/01 12:05:31;;;;;;;1.00;1.00;;;29.00;43.70;;;;;;4946511;28;20175;-75
2022/05/01 12:07:59;;;;;;;1.17;1.17;;;28.10;44.40;;;;;;4929160;28;20193;-75
2022/05/01 12:10:26;;;;;;;1.23;1.23;;;27.20;46.10;;;;;;4943065;28;20194;-75
2022/05/01 12:12:52;;;;;;;1.27;1.20;;;26.90;46.10;;;;;;4947849;28;20442;-75
2022/05/01 12:15:18;;;;;;;1.20;1.20;;;26.70;47.10;;;;;;4948587;28;20195;-75
2022/05/01 12:17:45;;;;;;;1.00;1.00;;;26.60;48.40;;;;;;4939829;28;20207;-75
2022/05/01 12:20:11;;;;;;;0.82;0.82;;;26.70;47.70;;;;;;4996771;28;20197;-75
2022/05/01 12:22:37;;;;;;;1.15;1.15;;;26.80;46.80;;;;;;5009245;28;20631;-75
2022/05/01 12:25:14;;;;;;;1.02;1.02;;;27.10;47.90;;;;;;5006197;28;20181;-75
2022/05/01 12:27:41;;;;;;;1.10;1.10;;;27.50;45.60;;;;;;5012563;28;20259;-74
2022/05/01 12:30:08;;;;;;;0.80;0.80;;;27.90;47.40;;;;;;5009968;28;20185;-75
2022/05/01 12:32:35;;;;;;;1.25;1.15;;;28.30;45.50;;;;;;5017268;28;20212;-78
2022/05/01 12:35:03;;;;;;;1.25;1.25;;;28.00;46.30;;;;;;5036307;28;20193;-73
2022/05/01 12:37:36;;;;;;;0.80;0.80;;;28.00;47.70;;;;;;5009666;28;20188;-72
2022/05/01 12:40:10;;;;;;;0.88;0.85;;;27.90;46.50;;;;;;5026555;28;20195;-72
2022/05/01 12:45:35;;;;;;;0.82;0.82;;;26.80;46.80;;;;;;5010591;28;20882;-72
2022/05/01 12:48:03;;;;;;;1.10;1.10;;;26.50;47.50;;;;;;5009011;28;20209;-73
2022/05/01 12:50:29;;;;;;;1.08;1.08;;;25.90;47.20;;;;;;5006747;28;20697;-73
2022/05/01 12:53:00;;;;;;;0.85;0.85;;;25.90;47.20;;;;;;5007964;28;20406;-73
2022/05/01 12:55:34;;;;;;;0.90;0.90;;;25.80;47.60;;;;;;5018634;28;20185;-71
2022/05/01 12:58:05;;;;;;;1.00;1.00;;;25.40;46.40;;;;;;5011056;28;20183;-74
2022/05/01 13:00:42;;;;;;;0.95;0.95;;;25.20;48.50;;;;;;5011083;28;20249;-74
2022/05/01 13:03:36;;;;;;;0.80;0.80;;;24.80;47.00;;;;;;5009108;28;20185;-74
2022/05/01 13:06:15;;;;;;;0.82;0.82;;;24.60;48.60;;;;;;5027267;28;20638;-74
2022/05/01 13:08:50;;;;;;;0.60;0.60;;;24.70;49.80;;;;;;5007078;28;20188;-73
2022/05/01 13:11:23;;;;;;;0.73;0.73;;;24.80;49.30;;;;;;5005603;28;20224;-73
2022/05/01 13:14:05;;;;;;;0.98;0.98;;;24.90;49.80;;;;;;5014232;28;20670;-74
2022/05/01 13:16:30;;;;;;;2.20;0.73;;;25.00;50.30;;;;;;5010584;28;20188;-74
2022/05/01 13:19:14;;;;;;;0.93;0.77;;;25.10;50.20;;;;;;5010792;28;20176;-74
2022/05/01 13:21:47;;;;;;;2.60;1.10;;;25.10;47.80;;;;;;5009622;28;20216;-75
2022/05/01 13:24:23;;;;;;;0.75;0.75;;;24.70;49.20;;;;;;5042420;28;20173;-75
2022/05/01 13:26:51;;;;;;;1.00;1.00;;;24.50;49.30;;;;;;5029729;28;20745;-74
2022/05/01 13:29:17;;;;;;;0.90;0.90;;;24.30;50.00;;;;;;5010439;28;21026;-74
2022/05/01 13:31:44;;;;;;;0.95;0.95;;;24.20;49.80;;;;;;5008400;28;20321;-74
2022/05/01 13:34:10;;;;;;;0.88;0.88;;;24.00;50.50;;;;;;5011570;28;20180;-75
2022/05/01 13:36:40;;;;;;;0.90;0.90;;;23.80;49.20;;;;;;5036854;28;20722;-74
2022/05/01 13:39:07;;;;;;;1.00;1.00;;;23.50;49.10;;;;;;5016544;28;20270;-74